Quemado, Texas
Current Conditions -  °F | °C
As of 2:58 PM on Tuesday 21 Oct 2014 (Local Time) from KDLF Reporting Station
Broken Clouds Broken Clouds  
Wind Chill: 79°   Ceiling: 4900
Heat Index: 80°   Visibility: 10mi
Dew Point: 60°   Wind: 12mph
Humidity: 52%   Direction: 140°SE
Pressure: 29.98"   Gusts: NA
Location:  28.95°N, 100.62°W
Report Text: KDLF 211958Z AUTO 14010KT 10SM BKN049 BKN095 26/16 A2998 RMK AO2 SLP141 T02630157 $
Loading
Personal Weather Stations






























Interactive Weather Map
Tropical Storm Tracking
New forecast layout! Learn more

10-Day Weather Forecast

Advertisements
Track Severe Weather on mobile